Flight Track Log - Related Links

Times and Time Zones

All times are in EDT time to prevent confusion due to time zone crossing. See the UAL4788 flight status page for this flight to view local times or setup timezone preferences in your user account.

Time Position Orientation Groundspeed Altitude Reporting Facility
EDT Latitude Longitude Course Direction KTS MPH feet Rate Location/Type
Tue 06:01:38 AM 42.9667 -83.6872 100° East 127 146 2,600  Level Cleveland Center
Tue 06:02:32 AM 42.9578 -83.6300 102° East 164 189 3,600 1,200 Climbing Cleveland Center
Tue 06:03:33 AM 42.9531 -83.5644 96° East 186 214 4,900 694 Climbing Cleveland Center
Tue 06:04:33 AM 42.9131 -83.5031 132° Southeast 238 274 5,000 50 Climbing Cleveland Center
Tue 06:05:34 AM 42.8564 -83.4325 138° Southeast 262 302 5,000  Level Cleveland Center
Tue 06:06:35 AM 42.8039 -83.3650 137° Southeast 260 299 5,000  Level Cleveland Center
Tue 06:07:00 AM 42.6882 -83.3975 100° East  Level Estimated
Tue 06:07:23 AM 42.7633 -83.3181 140° Southeast 257 296 5,000  Level Cleveland Center
Tue 06:08:18 AM 42.7167 -83.2594 137° Southeast 246 283 6,000 983 Climbing Cleveland Center
Tue 06:09:19 AM 42.6700 -83.2008 137° Southeast 222 255 6,900 472 Climbing Cleveland Center
Tue 06:10:25 AM 42.6153 -83.1308 137° Southeast 253 291 7,000 47 Climbing Cleveland Center
Tue 06:11:26 AM 42.5606 -83.0639 138° Southeast 261 300 7,000  Level Cleveland Center
Tue 06:12:21 AM 42.5158 -83.0114 139° Southeast 264 304 7,000  Level Cleveland Center
Tue 06:14:10 AM 42.4161 -82.8922 139° Southeast 298 343 7,000  Level Cleveland Center
Tue 06:15:10 AM 42.3614 -82.8200 136° Southeast 291 335 7,000  Level Cleveland Center
Tue 06:16:10 AM 42.3064 -82.7533 138° Southeast 279 321 7,000  Level Cleveland Center
Tue 06:17:10 AM 42.2450 -82.6811 139° Southeast 279 321 7,000  Level Cleveland Center
Tue 06:17:59 AM 42.2064 -82.6322 137° Southeast 268 308 7,000  Level Cleveland Center
Tue 06:18:54 AM 42.1511 -82.5689 140° Southeast 266 306 7,000  Level Cleveland Center
Tue 06:19:55 AM 42.0981 -82.5028 137° Southeast 271 312 7,000  Level Cleveland Center
Tue 06:20:55 AM 42.0408 -82.4342 138° Southeast 270 311 7,000  Level Cleveland Center
Tue 06:21:56 AM 41.9775 -82.3622 140° Southeast 275 316 7,000  Level Cleveland Center
Tue 06:22:57 AM 41.9222 -82.2939 137° Southeast 274 315 7,000  Level Cleveland Center
Tue 06:24:03 AM 41.8586 -82.2169 138° Southeast 278 320 7,000  Level Cleveland Center
Tue 06:25:10 AM 41.7886 -82.1511 145° Southeast 279 321 7,000  Level Cleveland Center
Tue 06:26:04 AM 41.7350 -82.1081 149° Southeast 276 318 7,000  Level Cleveland Center
Tue 06:27:05 AM 41.6650 -82.0508 149° Southeast 274 315 7,000  Level Cleveland Center
Tue 06:28:06 AM 41.5969 -81.9964 149° Southeast 271 312 7,000  Level Cleveland Center
Tue 06:29:06 AM 41.5392 -81.9508 149° Southeast 247 284 7,000  Level Cleveland Center
Tue 06:30:07 AM 41.4869 -81.9581 186° South 191 220 7,000  Level Cleveland Center
Tue 06:31:07 AM 41.4508 -82.0125 229° Southwest 203 234 7,000  Level Cleveland Center
Tue 06:32:08 AM 41.4125 -82.0644 225° Southwest 202 232 7,000  Level Cleveland Center
Tue 06:33:09 AM 41.3764 -82.1217 230° Southwest 197 227 7,000  Level Cleveland Center
Tue 06:34:15 AM 41.3317 -82.1786 224° Southwest 199 229 7,000  Level Cleveland Center
Tue 06:35:10 AM 41.2881 -82.1831 184° South 219 252 7,000 -310 Level Cleveland Center
Tue 06:36:11 AM 41.2428 -82.1239 135° Southeast 227 261 6,400 -1,041 Descending Cleveland Center
Tue 06:37:11 AM 41.2750 -82.0639 54° Northeast 213 245 4,900 -1,488 Descending Cleveland Center
Tue 06:38:12 AM 41.3089 -82.0122 49° Northeast 187 215 3,400 -1,240 Descending Cleveland Center
Tue 06:39:12 AM 41.3408 -81.9633 49° Northeast 169 194 2,400 -942 Descending Cleveland Center
Tue 06:40:13 AM 41.3725 -81.9197 46° Northeast 172 198 1,500 -885 Descending Cleveland Center

Login

Don't have an account? Register now (free) for customized features, flight alerts, and more!